sensor_id;sensor_type;location;lat;lon;timestamp;pressure;altitude;pressure_sealevel;temperature;humidity
6224;BME280;3145;42.726;23.342;2023-01-29T00:01:49;95485.69;;;0.67;nan
6224;BME280;3145;42.726;23.342;2023-01-29T00:04:15;95488.06;;;0.70;nan
6224;BME280;3145;42.726;23.342;2023-01-29T00:06:43;95487.13;;;0.60;nan
6224;BME280;3145;42.726;23.342;2023-01-29T00:09:10;95484.66;;;0.59;nan
6224;BME280;3145;42.726;23.342;2023-01-29T00:11:37;95494.44;;;0.66;nan
6224;BME280;3145;42.726;23.342;2023-01-29T00:14:04;95492.56;;;0.68;nan
6224;BME280;3145;42.726;23.342;2023-01-29T00:16:31;95493.50;;;0.67;nan
6224;BME280;3145;42.726;23.342;2023-01-29T00:18:59;95494.69;;;0.74;nan
6224;BME280;3145;42.726;23.342;2023-01-29T00:21:26;95492.94;;;0.75;nan
6224;BME280;3145;42.726;23.342;2023-01-29T00:23:54;95488.06;;;0.70;nan
6224;BME280;3145;42.726;23.342;2023-01-29T00:26:21;95497.28;;;0.74;nan
6224;BME280;3145;42.726;23.342;2023-01-29T00:28:48;95501.31;;;0.78;nan
6224;BME280;3145;42.726;23.342;2023-01-29T00:31:16;95509.13;;;0.78;nan
6224;BME280;3145;42.726;23.342;2023-01-29T00:33:43;95513.00;;;0.73;nan
6224;BME280;3145;42.726;23.342;2023-01-29T00:36:12;95512.66;;;0.77;nan
6224;BME280;3145;42.726;23.342;2023-01-29T00:38:39;95504.41;;;0.72;nan
6224;BME280;3145;42.726;23.342;2023-01-29T00:41:08;95488.19;;;0.69;nan
6224;BME280;3145;42.726;23.342;2023-01-29T00:43:53;95507.44;;;0.66;nan
6224;BME280;3145;42.726;23.342;2023-01-29T00:46:36;95508.53;;;0.75;nan
6224;BME280;3145;42.726;23.342;2023-01-29T00:49:04;95508.75;;;0.72;nan
6224;BME280;3145;42.726;23.342;2023-01-29T00:51:31;95492.81;;;0.65;nan
6224;BME280;3145;42.726;23.342;2023-01-29T00:53:58;95494.41;;;0.55;nan
6224;BME280;3145;42.726;23.342;2023-01-29T00:56:27;95493.75;;;0.64;nan
6224;BME280;3145;42.726;23.342;2023-01-29T00:58:54;95488.75;;;0.50;nan
6224;BME280;3145;42.726;23.342;2023-01-29T01:01:22;95502.97;;;0.68;nan
6224;BME280;3145;42.726;23.342;2023-01-29T01:04:03;95496.94;;;0.68;nan
6224;BME280;3145;42.726;23.342;2023-01-29T01:06:30;95475.53;;;0.53;nan
6224;BME280;3145;42.726;23.342;2023-01-29T01:08:56;95501.28;;;0.67;nan
6224;BME280;3145;42.726;23.342;2023-01-29T01:11:42;95497.03;;;0.66;nan
6224;BME280;3145;42.726;23.342;2023-01-29T01:14:09;95490.75;;;0.58;nan
6224;BME280;3145;42.726;23.342;2023-01-29T01:16:35;95502.34;;;0.65;nan
6224;BME280;3145;42.726;23.342;2023-01-29T01:19:02;95489.25;;;0.66;nan
6224;BME280;3145;42.726;23.342;2023-01-29T01:21:29;95484.88;;;0.67;nan
6224;BME280;3145;42.726;23.342;2023-01-29T01:23:56;95500.84;;;0.73;nan
6224;BME280;3145;42.726;23.342;2023-01-29T01:26:23;95488.91;;;0.71;nan
6224;BME280;3145;42.726;23.342;2023-01-29T01:28:51;95496.72;;;0.71;nan
6224;BME280;3145;42.726;23.342;2023-01-29T01:31:18;95496.22;;;0.77;nan
6224;BME280;3145;42.726;23.342;2023-01-29T01:33:45;95492.31;;;0.71;nan
6224;BME280;3145;42.726;23.342;2023-01-29T01:36:11;95493.75;;;0.75;nan
6224;BME280;3145;42.726;23.342;2023-01-29T01:38:38;95494.00;;;0.72;nan
6224;BME280;3145;42.726;23.342;2023-01-29T01:41:09;95491.16;;;0.75;nan
6224;BME280;3145;42.726;23.342;2023-01-29T01:43:47;95480.63;;;0.77;nan
6224;BME280;3145;42.726;23.342;2023-01-29T01:46:15;95459.84;;;0.55;nan
6224;BME280;3145;42.726;23.342;2023-01-29T01:48:43;95500.63;;;0.76;nan
6224;BME280;3145;42.726;23.342;2023-01-29T01:51:11;95501.06;;;0.70;nan
6224;BME280;3145;42.726;23.342;2023-01-29T01:53:41;95500.47;;;0.67;nan
6224;BME280;3145;42.726;23.342;2023-01-29T01:56:12;95503.66;;;0.70;nan
6224;BME280;3145;42.726;23.342;2023-01-29T01:58:42;95504.28;;;0.74;nan
6224;BME280;3145;42.726;23.342;2023-01-29T02:01:11;95508.16;;;0.68;nan
6224;BME280;3145;42.726;23.342;2023-01-29T02:03:42;95501.06;;;0.70;nan
6224;BME280;3145;42.726;23.342;2023-01-29T02:06:27;95518.56;;;0.68;nan
6224;BME280;3145;42.726;23.342;2023-01-29T02:09:15;95509.22;;;0.66;nan
6224;BME280;3145;42.726;23.342;2023-01-29T02:12:00;95508.63;;;0.62;nan
6224;BME280;3145;42.726;23.342;2023-01-29T02:14:27;95498.69;;;0.56;nan
6224;BME280;3145;42.726;23.342;2023-01-29T02:16:55;95507.41;;;0.55;nan
6224;BME280;3145;42.726;23.342;2023-01-29T02:19:31;95505.06;;;0.52;nan
6224;BME280;3145;42.726;23.342;2023-01-29T02:22:33;95509.09;;;0.56;nan
6224;BME280;3145;42.726;23.342;2023-01-29T02:25:26;95508.03;;;0.59;nan
6224;BME280;3145;42.726;23.342;2023-01-29T02:31:00;95507.16;;;0.47;nan
6224;BME280;3145;42.726;23.342;2023-01-29T02:33:39;95512.47;;;0.46;nan
6224;BME280;3145;42.726;23.342;2023-01-29T02:36:16;95516.84;;;0.45;nan
6224;BME280;3145;42.726;23.342;2023-01-29T02:38:49;95517.56;;;0.47;nan
6224;BME280;3145;42.726;23.342;2023-01-29T02:41:25;95515.56;;;0.51;nan
6224;BME280;3145;42.726;23.342;2023-01-29T02:43:58;95461.53;;;0.21;nan
6224;BME280;3145;42.726;23.342;2023-01-29T02:46:34;95523.25;;;0.52;nan
6224;BME280;3145;42.726;23.342;2023-01-29T02:49:08;95527.97;;;0.58;nan
6224;BME280;3145;42.726;23.342;2023-01-29T02:51:39;95533.75;;;0.62;nan
6224;BME280;3145;42.726;23.342;2023-01-29T02:54:15;95525.34;;;0.47;nan
6224;BME280;3145;42.726;23.342;2023-01-29T02:56:48;95528.19;;;0.55;nan
6224;BME280;3145;42.726;23.342;2023-01-29T02:59:19;95533.19;;;0.58;nan
6224;BME280;3145;42.726;23.342;2023-01-29T03:01:51;95525.50;;;0.57;nan
6224;BME280;3145;42.726;23.342;2023-01-29T03:04:21;95532.97;;;0.61;nan
6224;BME280;3145;42.726;23.342;2023-01-29T03:06:52;95532.97;;;0.61;nan
6224;BME280;3145;42.726;23.342;2023-01-29T03:09:25;95487.28;;;0.35;nan
6224;BME280;3145;42.726;23.342;2023-01-29T03:12:00;95520.66;;;0.63;nan
6224;BME280;3145;42.726;23.342;2023-01-29T03:14:45;95524.31;;;0.61;nan
6224;BME280;3145;42.726;23.342;2023-01-29T03:17:32;95535.22;;;0.66;nan
6224;BME280;3145;42.726;23.342;2023-01-29T03:20:07;95528.09;;;0.57;nan
6224;BME280;3145;42.726;23.342;2023-01-29T03:22:39;95505.28;;;0.49;nan
6224;BME280;3145;42.726;23.342;2023-01-29T03:25:07;95538.84;;;0.63;nan
6224;BME280;3145;42.726;23.342;2023-01-29T03:27:55;95543.94;;;0.65;nan
6224;BME280;3145;42.726;23.342;2023-01-29T03:30:42;95543.34;;;0.61;nan
6224;BME280;3145;42.726;23.342;2023-01-29T03:33:34;95546.06;;;0.60;nan
6224;BME280;3145;42.726;23.342;2023-01-29T03:36:07;95539.44;;;0.56;nan
6224;BME280;3145;42.726;23.342;2023-01-29T03:38:35;95545.94;;;0.61;nan
6224;BME280;3145;42.726;23.342;2023-01-29T03:41:07;95531.06;;;0.52;nan
6224;BME280;3145;42.726;23.342;2023-01-29T03:43:40;95525.50;;;0.57;nan
6224;BME280;3145;42.726;23.342;2023-01-29T03:46:15;95538.16;;;0.61;nan
6224;BME280;3145;42.726;23.342;2023-01-29T03:48:52;95540.72;;;0.50;nan
6224;BME280;3145;42.726;23.342;2023-01-29T03:51:26;95521.00;;;0.48;nan
6224;BME280;3145;42.726;23.342;2023-01-29T03:54:00;95540.03;;;0.59;nan
6224;BME280;3145;42.726;23.342;2023-01-29T03:56:38;95534.13;;;0.57;nan
6224;BME280;3145;42.726;23.342;2023-01-29T03:59:17;95540.75;;;0.61;nan
6224;BME280;3145;42.726;23.342;2023-01-29T04:01:48;95535.22;;;0.66;nan
6224;BME280;3145;42.726;23.342;2023-01-29T04:04:22;95539.31;;;0.57;nan
6224;BME280;3145;42.726;23.342;2023-01-29T04:06:51;95538.97;;;0.62;nan
6224;BME280;3145;42.726;23.342;2023-01-29T04:09:24;95536.50;;;0.60;nan
6224;BME280;3145;42.726;23.342;2023-01-29T04:11:57;95536.50;;;0.60;nan
6224;BME280;3145;42.726;23.342;2023-01-29T04:14:26;95546.31;;;0.68;nan
6224;BME280;3145;42.726;23.342;2023-01-29T04:16:56;95548.69;;;0.71;nan
6224;BME280;3145;42.726;23.342;2023-01-29T04:19:27;95550.56;;;0.69;nan
6224;BME280;3145;42.726;23.342;2023-01-29T04:22:01;95549.97;;;0.65;nan
6224;BME280;3145;42.726;23.342;2023-01-29T04:24:29;95554.81;;;0.59;nan
6224;BME280;3145;42.726;23.342;2023-01-29T04:27:05;95550.19;;;0.62;nan
6224;BME280;3145;42.726;23.342;2023-01-29T04:29:44;95551.03;;;0.63;nan
6224;BME280;3145;42.726;23.342;2023-01-29T04:32:18;95554.19;;;0.55;nan
6224;BME280;3145;42.726;23.342;2023-01-29T04:34:59;95554.56;;;0.62;nan
6224;BME280;3145;42.726;23.342;2023-01-29T04:37:34;95531.16;;;0.51;nan
6224;BME280;3145;42.726;23.342;2023-01-29T04:40:09;95490.59;;;0.26;nan
6224;BME280;3145;42.726;23.342;2023-01-29T04:42:43;95548.28;;;0.53;nan
6224;BME280;3145;42.726;23.342;2023-01-29T04:45:19;95547.56;;;0.51;nan
6224;BME280;3145;42.726;23.342;2023-01-29T04:47:57;95551.38;;;0.58;nan
6224;BME280;3145;42.726;23.342;2023-01-29T04:50:33;95558.47;;;0.56;nan
6224;BME280;3145;42.726;23.342;2023-01-29T04:53:06;95565.78;;;0.62;nan
6224;BME280;3145;42.726;23.342;2023-01-29T04:55:40;95566.63;;;0.63;nan
6224;BME280;3145;42.726;23.342;2023-01-29T04:58:13;95559.63;;;0.52;nan
6224;BME280;3145;42.726;23.342;2023-01-29T05:00:44;95566.00;;;0.59;nan
6224;BME280;3145;42.726;23.342;2023-01-29T05:03:14;95566.75;;;0.61;nan
6224;BME280;3145;42.726;23.342;2023-01-29T05:05:45;95560.34;;;0.54;nan
6224;BME280;3145;42.726;23.342;2023-01-29T05:08:16;95546.13;;;0.47;nan
6224;BME280;3145;42.726;23.342;2023-01-29T05:10:44;95566.00;;;0.59;nan
6224;BME280;3145;42.726;23.342;2023-01-29T05:13:13;95574.97;;;0.55;nan
6224;BME280;3145;42.726;23.342;2023-01-29T05:15:43;95564.38;;;0.58;nan
6224;BME280;3145;42.726;23.342;2023-01-29T05:18:12;95568.13;;;0.54;nan
6224;BME280;3145;42.726;23.342;2023-01-29T05:20:40;95556.78;;;0.44;nan
6224;BME280;3145;42.726;23.342;2023-01-29T05:23:14;95575.22;;;0.52;nan
6224;BME280;3145;42.726;23.342;2023-01-29T05:25:41;95574.75;;;0.58;nan
6224;BME280;3145;42.726;23.342;2023-01-29T05:28:08;95569.78;;;0.55;nan
6224;BME280;3145;42.726;23.342;2023-01-29T05:30:41;95581.59;;;0.59;nan
6224;BME280;3145;42.726;23.342;2023-01-29T05:33:15;95579.53;;;0.64;nan
6224;BME280;3145;42.726;23.342;2023-01-29T05:35:41;95581.16;;;0.65;nan
6224;BME280;3145;42.726;23.342;2023-01-29T05:38:10;95577.84;;;0.63;nan
6224;BME280;3145;42.726;23.342;2023-01-29T05:40:37;95572.91;;;0.60;nan
6224;BME280;3145;42.726;23.342;2023-01-29T05:43:04;95581.88;;;0.67;nan
6224;BME280;3145;42.726;23.342;2023-01-29T05:45:31;95598.88;;;0.71;nan
6224;BME280;3145;42.726;23.342;2023-01-29T05:47:58;95577.84;;;0.63;nan
6224;BME280;3145;42.726;23.342;2023-01-29T05:50:26;95595.34;;;0.61;nan
6224;BME280;3145;42.726;23.342;2023-01-29T05:52:56;95589.81;;;0.66;nan
6224;BME280;3145;42.726;23.342;2023-01-29T05:55:25;95599.16;;;0.68;nan
6224;BME280;3145;42.726;23.342;2023-01-29T05:57:53;95581.59;;;0.59;nan
6224;BME280;3145;42.726;23.342;2023-01-29T06:00:20;95603.16;;;0.72;nan
6224;BME280;3145;42.726;23.342;2023-01-29T06:02:47;95599.84;;;0.70;nan
6224;BME280;3145;42.726;23.342;2023-01-29T06:05:14;95601.75;;;0.68;nan
6224;BME280;3145;42.726;23.342;2023-01-29T06:07:41;95606.69;;;0.71;nan
6224;BME280;3145;42.726;23.342;2023-01-29T06:10:10;95605.03;;;0.70;nan
6224;BME280;3145;42.726;23.342;2023-01-29T06:12:39;95606.47;;;0.74;nan
6224;BME280;3145;42.726;23.342;2023-01-29T06:15:06;95616.50;;;0.68;nan
6224;BME280;3145;42.726;23.342;2023-01-29T06:17:33;95599.53;;;0.51;nan
6224;BME280;3145;42.726;23.342;2023-01-29T06:20:00;95622.97;;;0.62;nan
6224;BME280;3145;42.726;23.342;2023-01-29T06:22:26;95620.31;;;0.51;nan
6224;BME280;3145;42.726;23.342;2023-01-29T06:24:53;95618.94;;;0.58;nan
6224;BME280;3145;42.726;23.342;2023-01-29T06:27:20;95631.50;;;0.64;nan
6224;BME280;3145;42.726;23.342;2023-01-29T06:29:48;95633.16;;;0.65;nan
6224;BME280;3145;42.726;23.342;2023-01-29T06:32:15;95634.97;;;0.76;nan
6224;BME280;3145;42.726;23.342;2023-01-29T06:34:41;95637.34;;;0.79;nan
6224;BME280;3145;42.726;23.342;2023-01-29T06:37:08;95642.44;;;0.80;nan
6224;BME280;3145;42.726;23.342;2023-01-29T06:39:35;95642.19;;;0.83;nan
6224;BME280;3145;42.726;23.342;2023-01-29T06:42:01;95644.44;;;0.88;nan
6224;BME280;3145;42.726;23.342;2023-01-29T06:44:28;95641.41;;;0.94;nan
6224;BME280;3145;42.726;23.342;2023-01-29T06:46:56;95644.81;;;0.94;nan
6224;BME280;3145;42.726;23.342;2023-01-29T06:49:23;95648.63;;;1.01;nan
6224;BME280;3145;42.726;23.342;2023-01-29T06:51:50;95649.63;;;1.22;nan
6224;BME280;3145;42.726;23.342;2023-01-29T06:54:16;95655.09;;;1.41;nan
6224;BME280;3145;42.726;23.342;2023-01-29T06:56:43;95641.47;;;1.49;nan
6224;BME280;3145;42.726;23.342;2023-01-29T06:59:10;95652.50;;;1.74;nan
6224;BME280;3145;42.726;23.342;2023-01-29T07:01:38;95649.31;;;1.82;nan
6224;BME280;3145;42.726;23.342;2023-01-29T07:04:07;95590.50;;;1.46;nan
6224;BME280;3145;42.726;23.342;2023-01-29T07:06:34;95653.69;;;1.70;nan
6224;BME280;3145;42.726;23.342;2023-01-29T07:09:01;95663.97;;;1.61;nan
6224;BME280;3145;42.726;23.342;2023-01-29T07:11:28;95676.88;;;1.51;nan
6224;BME280;3145;42.726;23.342;2023-01-29T07:13:55;95659.22;;;1.44;nan
6224;BME280;3145;42.726;23.342;2023-01-29T07:16:22;95671.91;;;1.48;nan
6224;BME280;3145;42.726;23.342;2023-01-29T07:18:49;95676.03;;;1.40;nan
6224;BME280;3145;42.726;23.342;2023-01-29T07:21:17;95676.38;;;1.46;nan
6224;BME280;3145;42.726;23.342;2023-01-29T07:23:43;95676.63;;;1.54;nan
6224;BME280;3145;42.726;23.342;2023-01-29T07:26:10;95667.63;;;1.36;nan
6224;BME280;3145;42.726;23.342;2023-01-29T07:28:37;95678.75;;;1.49;nan
6224;BME280;3145;42.726;23.342;2023-01-29T07:31:05;95686.22;;;1.54;nan
6224;BME280;3145;42.726;23.342;2023-01-29T07:33:32;95679.22;;;1.54;nan
6224;BME280;3145;42.726;23.342;2023-01-29T07:35:59;95673.34;;;1.52;nan
6224;BME280;3145;42.726;23.342;2023-01-29T07:38:28;95686.22;;;1.54;nan
6224;BME280;3145;42.726;23.342;2023-01-29T07:40:54;95676.88;;;1.51;nan
6224;BME280;3145;42.726;23.342;2023-01-29T07:43:21;95683.63;;;1.65;nan
6224;BME280;3145;42.726;23.342;2023-01-29T07:45:49;95659.72;;;1.60;nan
6224;BME280;3145;42.726;23.342;2023-01-29T07:48:16;95669.06;;;1.62;nan
6224;BME280;3145;42.726;23.342;2023-01-29T07:50:42;95688.72;;;1.77;nan
6224;BME280;3145;42.726;23.342;2023-01-29T07:53:11;95691.09;;;1.69;nan
6224;BME280;3145;42.726;23.342;2023-01-29T07:55:42;95685.19;;;1.67;nan
6224;BME280;3145;42.726;23.342;2023-01-29T07:58:09;95694.66;;;1.68;nan
6224;BME280;3145;42.726;23.342;2023-01-29T08:00:36;95694.19;;;1.63;nan
6224;BME280;3145;42.726;23.342;2023-01-29T08:03:04;95692.75;;;1.70;nan
6224;BME280;3145;42.726;23.342;2023-01-29T08:05:31;95695.47;;;1.69;nan
6224;BME280;3145;42.726;23.342;2023-01-29T08:07:58;95695.47;;;1.69;nan
6224;BME280;3145;42.726;23.342;2023-01-29T08:10:25;95705.78;;;1.81;nan
6224;BME280;3145;42.726;23.342;2023-01-29T08:12:55;95695.47;;;1.91;nan
6224;BME280;3145;42.726;23.342;2023-01-29T08:15:22;95704.00;;;2.15;nan
6224;BME280;3145;42.726;23.342;2023-01-29T08:17:49;95696.06;;;2.16;nan
6224;BME280;3145;42.726;23.342;2023-01-29T08:20:17;95706.72;;;2.13;nan
6224;BME280;3145;42.726;23.342;2023-01-29T08:22:44;95704.22;;;2.12;nan
6224;BME280;3145;42.726;23.342;2023-01-29T08:25:11;95702.34;;;2.03;nan
6224;BME280;3145;42.726;23.342;2023-01-29T08:27:38;95699.63;;;1.93;nan
6224;BME280;3145;42.726;23.342;2023-01-29T08:30:08;95710.16;;;1.92;nan
6224;BME280;3145;42.726;23.342;2023-01-29T08:32:35;95717.63;;;1.85;nan
6224;BME280;3145;42.726;23.342;2023-01-29T08:35:02;95711.72;;;1.83;nan
6224;BME280;3145;42.726;23.342;2023-01-29T08:37:29;95716.22;;;1.92;nan
6224;BME280;3145;42.726;23.342;2023-01-29T08:39:56;95720.81;;;1.89;nan
6224;BME280;3145;42.726;23.342;2023-01-29T08:42:22;95726.84;;;1.89;nan
6224;BME280;3145;42.726;23.342;2023-01-29T08:44:49;95727.72;;;2.01;nan
6224;BME280;3145;42.726;23.342;2023-01-29T08:47:17;95724.38;;;2.10;nan
6224;BME280;3145;42.726;23.342;2023-01-29T08:49:44;95728.19;;;2.17;nan
6224;BME280;3145;42.726;23.342;2023-01-29T08:52:11;95736.34;;;2.12;nan
6224;BME280;3145;42.726;23.342;2023-01-29T08:54:38;95736.09;;;2.26;nan
6224;BME280;3145;42.726;23.342;2023-01-29T08:57:04;95739.19;;;2.20;nan
6224;BME280;3145;42.726;23.342;2023-01-29T08:59:31;95712.06;;;2.12;nan
6224;BME280;3145;42.726;23.342;2023-01-29T09:01:58;95736.56;;;2.31;nan
6224;BME280;3145;42.726;23.342;2023-01-29T09:04:26;95741.66;;;2.22;nan
6224;BME280;3145;42.726;23.342;2023-01-29T09:06:53;95738.94;;;2.23;nan
6224;BME280;3145;42.726;23.342;2023-01-29T09:09:19;95744.13;;;2.45;nan
6224;BME280;3145;42.726;23.342;2023-01-29T09:11:46;95742.47;;;2.22;nan
6224;BME280;3145;42.726;23.342;2023-01-29T09:14:13;95744.84;;;2.36;nan
6224;BME280;3145;42.726;23.342;2023-01-29T09:16:39;95726.63;;;2.25;nan
6224;BME280;3145;42.726;23.342;2023-01-29T09:19:06;95736.69;;;2.41;nan
6224;BME280;3145;42.726;23.342;2023-01-29T09:21:35;95724.94;;;2.46;nan
6224;BME280;3145;42.726;23.342;2023-01-29T09:24:01;95740.56;;;2.46;nan
6224;BME280;3145;42.726;23.342;2023-01-29T09:26:28;95740.94;;;2.53;nan
6224;BME280;3145;42.726;23.342;2023-01-29T09:28:55;95732.72;;;2.57;nan
6224;BME280;3145;42.726;23.342;2023-01-29T09:31:21;95736.47;;;2.22;nan
6224;BME280;3145;42.726;23.342;2023-01-29T09:33:48;95725.66;;;2.26;nan
6224;BME280;3145;42.726;23.342;2023-01-29T09:36:15;95734.44;;;2.36;nan
6224;BME280;3145;42.726;23.342;2023-01-29T09:38:43;95725.66;;;2.37;nan
6224;BME280;3145;42.726;23.342;2023-01-29T09:41:22;95711.53;;;2.40;nan
6224;BME280;3145;42.726;23.342;2023-01-29T09:43:54;95721.84;;;2.52;nan
6224;BME280;3145;42.726;23.342;2023-01-29T09:46:29;95688.47;;;2.24;nan
6224;BME280;3145;42.726;23.342;2023-01-29T09:49:01;95721.06;;;2.41;nan
6224;BME280;3145;42.726;23.342;2023-01-29T09:51:34;95707.78;;;2.33;nan
6224;BME280;3145;42.726;23.342;2023-01-29T09:54:13;95723.28;;;2.45;nan
6224;BME280;3145;42.726;23.342;2023-01-29T09:56:44;95726.25;;;2.41;nan
6224;BME280;3145;42.726;23.342;2023-01-29T09:59:12;95670.50;;;1.99;nan
6224;BME280;3145;42.726;23.342;2023-01-29T10:01:44;95624.34;;;1.68;nan
6224;BME280;3145;42.726;23.342;2023-01-29T10:04:23;95723.19;;;2.25;nan
6224;BME280;3145;42.726;23.342;2023-01-29T10:07:11;95715.38;;;2.25;nan
6224;BME280;3145;42.726;23.342;2023-01-29T10:12:49;95702.69;;;2.20;nan
6224;BME280;3145;42.726;23.342;2023-01-29T10:15:27;95700.94;;;2.10;nan
6224;BME280;3145;42.726;23.342;2023-01-29T10:18:12;95698.69;;;2.05;nan
6224;BME280;3145;42.726;23.342;2023-01-29T10:20:50;95702.59;;;2.11;nan
6224;BME280;3145;42.726;23.342;2023-01-29T10:23:23;95697.94;;;2.14;nan
6224;BME280;3145;42.726;23.342;2023-01-29T10:25:54;95703.44;;;2.11;nan
6224;BME280;3145;42.726;23.342;2023-01-29T10:28:26;95693.00;;;2.11;nan
6224;BME280;3145;42.726;23.342;2023-01-29T10:30:57;95692.75;;;2.14;nan
6224;BME280;3145;42.726;23.342;2023-01-29T10:33:28;95693.81;;;2.12;nan
6224;BME280;3145;42.726;23.342;2023-01-29T10:36:02;95686.59;;;2.04;nan
6224;BME280;3145;42.726;23.342;2023-01-29T10:38:42;95691.81;;;2.04;nan
6224;BME280;3145;42.726;23.342;2023-01-29T10:41:35;95624.59;;;1.65;nan
6224;BME280;3145;42.726;23.342;2023-01-29T10:44:18;95682.69;;;1.99;nan
6224;BME280;3145;42.726;23.342;2023-01-29T10:47:04;95686.59;;;2.04;nan
6224;BME280;3145;42.726;23.342;2023-01-29T10:49:49;95692.16;;;1.89;nan
6224;BME280;3145;42.726;23.342;2023-01-29T10:52:31;95690.41;;;2.00;nan
6224;BME280;3145;42.726;23.342;2023-01-29T10:55:10;95679.47;;;2.06;nan
6224;BME280;3145;42.726;23.342;2023-01-29T10:57:54;95635.47;;;1.81;nan
6224;BME280;3145;42.726;23.342;2023-01-29T11:00:26;95670.97;;;2.04;nan
6224;BME280;3145;42.726;23.342;2023-01-29T11:02:56;95679.25;;;2.20;nan
6224;BME280;3145;42.726;23.342;2023-01-29T11:05:28;95676.50;;;2.33;nan
6224;BME280;3145;42.726;23.342;2023-01-29T11:08:02;95670.81;;;2.39;nan
6224;BME280;3145;42.726;23.342;2023-01-29T11:10:32;95676.38;;;2.34;nan
6224;BME280;3145;42.726;23.342;2023-01-29T11:13:04;95672.84;;;2.35;nan
6224;BME280;3145;42.726;23.342;2023-01-29T11:15:31;95670.91;;;2.37;nan
6224;BME280;3145;42.726;23.342;2023-01-29T11:18:08;95666.22;;;2.20;nan
6224;BME280;3145;42.726;23.342;2023-01-29T11:20:38;95664.53;;;2.30;nan
6224;BME280;3145;42.726;23.342;2023-01-29T11:23:23;95661.22;;;2.39;nan
6224;BME280;3145;42.726;23.342;2023-01-29T11:25:51;95664.50;;;2.41;nan
6224;BME280;3145;42.726;23.342;2023-01-29T11:28:40;95652.00;;;2.24;nan
6224;BME280;3145;42.726;23.342;2023-01-29T11:31:19;95650.31;;;2.34;nan
6224;BME280;3145;42.726;23.342;2023-01-29T11:33:47;95642.34;;;2.47;nan
6224;BME280;3145;42.726;23.342;2023-01-29T11:36:20;95653.44;;;2.60;nan
6224;BME280;3145;42.726;23.342;2023-01-29T11:39:07;95638.84;;;2.68;nan
6224;BME280;3145;42.726;23.342;2023-01-29T11:41:42;95627.63;;;2.57;nan
6224;BME280;3145;42.726;23.342;2023-01-29T11:44:28;95638.81;;;2.79;nan
6224;BME280;3145;42.726;23.342;2023-01-29T11:46:59;95634.75;;;2.86;nan
6224;BME280;3145;42.726;23.342;2023-01-29T11:49:35;95633.22;;;3.04;nan
6224;BME280;3145;42.726;23.342;2023-01-29T11:52:04;95632.97;;;3.07;nan
6224;BME280;3145;42.726;23.342;2023-01-29T11:54:36;95634.88;;;3.05;nan
6224;BME280;3145;42.726;23.342;2023-01-29T11:57:04;95628.00;;;3.04;nan
6224;BME280;3145;42.726;23.342;2023-01-29T11:59:38;95633.78;;;3.08;nan
6224;BME280;3145;42.726;23.342;2023-01-29T12:02:19;95629.28;;;3.10;nan
6224;BME280;3145;42.726;23.342;2023-01-29T12:04:47;95629.41;;;3.08;nan
6224;BME280;3145;42.726;23.342;2023-01-29T12:07:16;95619.69;;;3.10;nan
6224;BME280;3145;42.726;23.342;2023-01-29T12:09:49;95628.19;;;3.33;nan
6224;BME280;3145;42.726;23.342;2023-01-29T12:12:27;95624.69;;;3.43;nan
6224;BME280;3145;42.726;23.342;2023-01-29T12:15:22;95622.19;;;3.42;nan
6224;BME280;3145;42.726;23.342;2023-01-29T12:17:55;95627.00;;;3.67;nan
6224;BME280;3145;42.726;23.342;2023-01-29T12:20:28;95621.28;;;3.52;nan
6224;BME280;3145;42.726;23.342;2023-01-29T12:23:02;95624.00;;;3.71;nan
6224;BME280;3145;42.726;23.342;2023-01-29T12:25:39;95616.59;;;3.76;nan
6224;BME280;3145;42.726;23.342;2023-01-29T12:28:17;95623.38;;;3.88;nan
6224;BME280;3145;42.726;23.342;2023-01-29T12:31:04;95626.28;;;3.85;nan
6224;BME280;3145;42.726;23.342;2023-01-29T12:33:39;95584.03;;;3.50;nan
6224;BME280;3145;42.726;23.342;2023-01-29T12:36:11;95619.91;;;3.78;nan
6224;BME280;3145;42.726;23.342;2023-01-29T12:38:39;95614.16;;;3.84;nan
6224;BME280;3145;42.726;23.342;2023-01-29T12:41:19;95622.41;;;3.80;nan
6224;BME280;3145;42.726;23.342;2023-01-29T12:43:53;95620.50;;;3.61;nan
6224;BME280;3145;42.726;23.342;2023-01-29T12:46:26;95624.78;;;3.62;nan
6224;BME280;3145;42.726;23.342;2023-01-29T12:48:56;95618.97;;;3.59;nan
6224;BME280;3145;42.726;23.342;2023-01-29T12:51:30;95620.31;;;3.53;nan
6224;BME280;3145;42.726;23.342;2023-01-29T12:54:02;95618.38;;;3.25;nan
6224;BME280;3145;42.726;23.342;2023-01-29T12:56:33;95620.13;;;3.15;nan
6224;BME280;3145;42.726;23.342;2023-01-29T12:59:11;95622.28;;;3.10;nan
6224;BME280;3145;42.726;23.342;2023-01-29T13:01:45;95621.63;;;2.97;nan
6224;BME280;3145;42.726;23.342;2023-01-29T13:04:15;95620.22;;;2.93;nan
6224;BME280;3145;42.726;23.342;2023-01-29T13:06:49;95621.56;;;3.08;nan
6224;BME280;3145;42.726;23.342;2023-01-29T13:09:20;95617.31;;;3.07;nan
6224;BME280;3145;42.726;23.342;2023-01-29T13:11:51;95620.34;;;3.12;nan
6224;BME280;3145;42.726;23.342;2023-01-29T13:14:22;95617.06;;;3.10;nan
6224;BME280;3145;42.726;23.342;2023-01-29T13:16:56;95618.09;;;2.98;nan
6224;BME280;3145;42.726;23.342;2023-01-29T13:19:30;95629.56;;;2.96;nan
6224;BME280;3145;42.726;23.342;2023-01-29T13:22:01;95629.94;;;3.02;nan
6224;BME280;3145;42.726;23.342;2023-01-29T13:24:33;95626.97;;;3.16;nan
6224;BME280;3145;42.726;23.342;2023-01-29T13:27:02;95625.59;;;3.12;nan
6224;BME280;3145;42.726;23.342;2023-01-29T13:29:30;95638.44;;;3.04;nan
6224;BME280;3145;42.726;23.342;2023-01-29T13:31:59;95637.94;;;3.10;nan
6224;BME280;3145;42.726;23.342;2023-01-29T13:34:29;95635.19;;;3.12;nan
6224;BME280;3145;42.726;23.342;2023-01-29T13:36:59;95631.31;;;3.06;nan
6224;BME280;3145;42.726;23.342;2023-01-29T13:39:29;95647.47;;;3.00;nan
6224;BME280;3145;42.726;23.342;2023-01-29T13:41:58;95639.28;;;3.05;nan
6224;BME280;3145;42.726;23.342;2023-01-29T13:44:27;95643.34;;;2.98;nan
6224;BME280;3145;42.726;23.342;2023-01-29T13:46:58;95626.00;;;2.76;nan
6224;BME280;3145;42.726;23.342;2023-01-29T13:49:33;95637.16;;;2.78;nan
6224;BME280;3145;42.726;23.342;2023-01-29T13:52:15;95631.25;;;2.65;nan
6224;BME280;3145;42.726;23.342;2023-01-29T13:54:51;95637.63;;;2.72;nan
6224;BME280;3145;42.726;23.342;2023-01-29T13:57:47;95649.47;;;2.76;nan
6224;BME280;3145;42.726;23.342;2023-01-29T14:03:42;95649.63;;;2.64;nan
6224;BME280;3145;42.726;23.342;2023-01-29T14:06:09;95652.13;;;2.54;nan
6224;BME280;3145;42.726;23.342;2023-01-29T14:08:38;95645.13;;;2.23;nan
6224;BME280;3145;42.726;23.342;2023-01-29T14:11:31;95658.38;;;2.31;nan
6224;BME280;3145;42.726;23.342;2023-01-29T14:13:59;95642.88;;;2.30;nan
6224;BME280;3145;42.726;23.342;2023-01-29T14:16:35;95658.50;;;2.19;nan
6224;BME280;3145;42.726;23.342;2023-01-29T14:19:04;95661.13;;;2.30;nan